カーブル の空港の天気 - METARとTAF

カーブル国際空港 ( OAKB / KBL ) - アフガニスタン カーブル
飛行場実況気象(Metar)
観測時間04/25 20:20 +0430 (04/25 15:50 UTC)
風向・風速北北東 4m/s
視程10km以上
天気現象
なし
気温20℃
湿度19%
気圧1017hPa
METAROAKB 251550Z 02008KT 9999 CAVOK 20/M04 Q1017 NOSIG RMK BLU BLU
過去の天気等 Google飛行場航空写真 Wunderground天気予報

過去48時間のMETAR

飛行場予報(TAF)
発表時間: 4/25 15:35 +0430 (4/25 11:05 UTC)
予報対象時間: 25日16時 +0430 ~ 26日16時 +0430
風向・風速不定 1m/s
視程10km以上
少しの雲 雲底高度 3,050m
25日16時 +0430 ~ 25日19時 +0430 に一時的に
風向・風速北東 6m/s
25日19時 +0430 ~ 25日21時 +0430 に徐々に
視程10km以上
なし
26日10時 +0430 ~ 26日12時 +0430 に徐々に
風向・風速北北東 6m/s
少しの雲 雲底高度 3,050m
26日14時 +0430 ~ 26日16時 +0430 に徐々に
風向・風速北 8m/s 瞬間風速 13m/s
TAF OAKB 251105Z 2512/2612 VRB02KT 9999 FEW100
TEMPO 2512/2515 05012KT
BECMG 2515/2517 CAVOK
BECMG 2606/2608 02012KT FEW100
BECMG 2610/2612 36015G25KT